createdAt,value
2022-11-27T00:01:38.431Z,18.10
2022-11-27T00:04:07.961Z,21.65
2022-11-27T00:06:40.356Z,15.25
2022-11-27T00:09:13.296Z,20.52
2022-11-27T00:11:41.917Z,20.38
2022-11-27T00:14:13.928Z,15.52
2022-11-27T00:16:43.099Z,16.77
2022-11-27T00:19:12.020Z,14.57
2022-11-27T00:21:41.652Z,17.20
2022-11-27T00:24:12.071Z,12.52
2022-11-27T00:26:40.340Z,17.73
2022-11-27T00:29:09.038Z,13.40
2022-11-27T00:31:39.782Z,18.52
2022-11-27T00:34:09.658Z,15.55
2022-11-27T00:36:39.780Z,11.73
2022-11-27T00:39:11.892Z,15.40
2022-11-27T00:41:40.551Z,18.85
2022-11-27T00:44:09.069Z,11.70
2022-11-27T00:46:37.444Z,11.07
2022-11-27T00:49:07.543Z,19.80
2022-11-27T00:51:36.031Z,16.30
2022-11-27T00:54:04.699Z,17.88
2022-11-27T00:56:37.614Z,12.35
2022-11-27T00:59:06.698Z,18.63
2022-11-27T01:01:39.085Z,14.52
2022-11-27T01:04:10.146Z,13.57
2022-11-27T01:06:38.837Z,16.45
2022-11-27T01:09:07.573Z,18.98
2022-11-27T01:11:37.607Z,14.98
2022-11-27T01:14:09.428Z,16.15
2022-11-27T01:16:42.877Z,11.18
2022-11-27T01:19:13.323Z,11.73
2022-11-27T01:21:42.102Z,7.60
2022-11-27T01:24:12.963Z,8.20
2022-11-27T01:26:42.931Z,11.63
2022-11-27T01:29:12.465Z,7.00
2022-11-27T01:31:41.234Z,10.73
2022-11-27T01:34:15.583Z,6.65
2022-11-27T01:36:44.060Z,6.80
2022-11-27T01:39:17.663Z,9.63
2022-11-27T01:41:49.315Z,10.37
2022-11-27T01:44:53.276Z,15.38
2022-11-27T01:47:41.085Z,8.95
2022-11-27T01:50:17.904Z,14.55
2022-11-27T01:52:51.871Z,18.33
2022-11-27T01:55:28.184Z,14.50
2022-11-27T01:58:01.820Z,15.80
2022-11-27T02:00:30.515Z,16.13
2022-11-27T02:02:59.318Z,18.90
2022-11-27T02:05:29.525Z,8.15
2022-11-27T02:08:01.455Z,12.40
2022-11-27T02:10:40.940Z,16.38
2022-11-27T02:13:15.155Z,22.27
2022-11-27T02:15:55.156Z,19.00
2022-11-27T02:18:31.795Z,17.75
2022-11-27T02:21:06.998Z,19.48
2022-11-27T02:24:11.963Z,18.90
2022-11-27T02:27:25.843Z,23.85
2022-11-27T02:30:00.471Z,37.30
2022-11-27T02:32:35.911Z,52.58
2022-11-27T02:35:12.527Z,42.63
2022-11-27T02:37:48.380Z,31.45
2022-11-27T02:40:24.306Z,21.10
2022-11-27T02:42:58.093Z,21.50
2022-11-27T02:45:34.086Z,14.40
2022-11-27T02:48:04.437Z,17.30
2022-11-27T02:50:35.558Z,17.00
2022-11-27T02:53:09.407Z,23.75
2022-11-27T02:55:41.531Z,22.98
2022-11-27T02:58:16.897Z,21.48
2022-11-27T03:00:48.928Z,11.23
2022-11-27T03:03:22.495Z,6.53
2022-11-27T03:05:55.879Z,8.30
2022-11-27T03:08:34.542Z,5.22
2022-11-27T03:11:07.857Z,4.65
2022-11-27T03:13:39.054Z,5.45
2022-11-27T03:16:17.608Z,7.65
2022-11-27T03:18:57.612Z,6.88
2022-11-27T03:21:32.503Z,7.82
2022-11-27T03:24:01.494Z,6.53
2022-11-27T03:26:30.170Z,7.32
2022-11-27T03:29:01.927Z,6.80
2022-11-27T03:31:32.264Z,5.43
2022-11-27T03:34:00.978Z,7.30
2022-11-27T03:36:29.523Z,11.43
2022-11-27T03:38:57.795Z,10.52
2022-11-27T03:41:35.819Z,14.00
2022-11-27T03:44:14.616Z,5.82
2022-11-27T03:46:57.981Z,6.63
2022-11-27T03:49:35.404Z,10.23
2022-11-27T03:52:14.626Z,6.55
2022-11-27T03:54:54.071Z,6.25
2022-11-27T03:57:29.923Z,8.93
2022-11-27T04:00:02.684Z,5.88
2022-11-27T04:02:44.002Z,10.60
2022-11-27T04:05:13.636Z,9.18
2022-11-27T04:07:42.566Z,9.15
2022-11-27T04:10:12.753Z,6.30
2022-11-27T04:12:41.703Z,6.53
2022-11-27T04:15:11.177Z,7.80
2022-11-27T04:17:40.998Z,8.13
2022-11-27T04:20:11.842Z,8.88
2022-11-27T04:22:40.341Z,6.25
2022-11-27T04:25:09.947Z,7.22
2022-11-27T04:27:38.463Z,8.35
2022-11-27T04:30:08.553Z,8.13
2022-11-27T04:32:37.040Z,9.32
2022-11-27T04:35:07.663Z,7.63
2022-11-27T04:37:36.210Z,9.18
2022-11-27T04:40:06.160Z,8.35
2022-11-27T04:42:34.723Z,7.13
2022-11-27T04:45:03.404Z,9.43
2022-11-27T04:47:31.684Z,6.72
2022-11-27T04:50:00.175Z,8.55
2022-11-27T04:52:29.848Z,9.40
2022-11-27T04:55:00.235Z,9.93
2022-11-27T04:57:29.313Z,10.65
2022-11-27T04:59:57.983Z,10.13
2022-11-27T05:02:26.545Z,13.35
2022-11-27T05:04:55.327Z,13.88
2022-11-27T05:07:23.928Z,16.05
2022-11-27T05:09:53.482Z,9.80
2022-11-27T05:12:21.720Z,12.95
2022-11-27T05:14:50.295Z,16.08
2022-11-27T05:17:18.837Z,12.77
2022-11-27T05:19:47.056Z,11.10
2022-11-27T05:22:15.624Z,13.80
2022-11-27T05:24:44.142Z,11.48
2022-11-27T05:27:13.792Z,15.88
2022-11-27T05:29:43.582Z,13.50
2022-11-27T05:32:12.166Z,12.80
2022-11-27T05:34:40.912Z,14.07
2022-11-27T05:37:09.666Z,16.42
2022-11-27T05:39:38.142Z,16.45
2022-11-27T05:42:06.862Z,15.05
2022-11-27T05:44:36.415Z,16.67
2022-11-27T05:47:05.077Z,16.05
2022-11-27T05:49:35.411Z,18.05
2022-11-27T05:52:03.923Z,19.58
2022-11-27T05:54:32.397Z,16.55
2022-11-27T05:57:00.953Z,26.02
2022-11-27T05:59:29.144Z,26.17
2022-11-27T06:01:58.736Z,21.13
2022-11-27T06:04:27.276Z,19.05
2022-11-27T06:06:55.854Z,16.73
2022-11-27T06:09:24.179Z,19.73
2022-11-27T06:11:52.887Z,19.88
2022-11-27T06:14:21.385Z,15.45
2022-11-27T06:16:50.033Z,17.13
2022-11-27T06:19:19.672Z,20.85
2022-11-27T06:21:48.200Z,17.95
2022-11-27T06:24:16.713Z,16.13
2022-11-27T06:26:45.462Z,20.98
2022-11-27T06:29:14.206Z,19.55
2022-11-27T06:31:43.038Z,23.30
2022-11-27T06:34:13.600Z,24.10
2022-11-27T06:36:43.449Z,22.02
2022-11-27T06:39:12.720Z,22.77
2022-11-27T06:41:41.370Z,23.92
2022-11-27T06:44:12.051Z,22.23
2022-11-27T06:46:40.629Z,21.85
2022-11-27T06:49:08.873Z,29.05
2022-11-27T06:51:37.485Z,24.45
2022-11-27T06:54:07.193Z,28.80
2022-11-27T06:56:35.946Z,27.50
2022-11-27T06:59:04.187Z,29.80
2022-11-27T07:01:34.232Z,29.75
2022-11-27T07:04:02.806Z,33.20
2022-11-27T07:06:31.320Z,36.13
2022-11-27T07:08:59.809Z,36.35
2022-11-27T07:11:31.955Z,33.22
2022-11-27T07:14:02.575Z,31.83
2022-11-27T07:16:32.925Z,30.95
2022-11-27T07:19:04.036Z,39.95
2022-11-27T07:21:32.999Z,39.63
2022-11-27T07:24:02.238Z,41.50
2022-11-27T07:26:32.235Z,37.53
2022-11-27T07:29:00.875Z,36.15
2022-11-27T07:31:31.099Z,40.58
2022-11-27T07:33:59.984Z,37.60
2022-11-27T07:36:31.233Z,35.85
2022-11-27T07:38:59.899Z,44.58
2022-11-27T07:41:33.684Z,43.22
2022-11-27T07:44:04.238Z,41.92
2022-11-27T07:46:32.786Z,37.53
2022-11-27T07:49:01.489Z,45.78
2022-11-27T07:51:30.476Z,48.08
2022-11-27T07:54:00.407Z,38.92
2022-11-27T07:56:29.554Z,47.65
2022-11-27T07:58:58.579Z,57.22
2022-11-27T08:01:28.249Z,52.40
2022-11-27T08:03:56.895Z,44.85
2022-11-27T08:06:27.762Z,49.33
2022-11-27T08:08:56.781Z,48.88
2022-11-27T08:11:27.561Z,51.58
2022-11-27T08:13:58.910Z,37.05
2022-11-27T08:16:29.296Z,39.78
2022-11-27T08:18:58.129Z,47.92
2022-11-27T08:21:27.423Z,31.35
2022-11-27T08:23:57.064Z,35.35
2022-11-27T08:26:27.487Z,44.00
2022-11-27T08:28:56.655Z,32.28
2022-11-27T08:31:25.198Z,25.55
2022-11-27T08:33:55.012Z,34.45
2022-11-27T08:36:26.525Z,27.40
2022-11-27T08:38:55.923Z,31.50
2022-11-27T08:41:24.235Z,32.20
2022-11-27T08:43:52.833Z,30.13
2022-11-27T08:46:21.181Z,36.15
2022-11-27T08:48:49.447Z,30.92
2022-11-27T08:51:19.207Z,31.17
2022-11-27T08:53:47.773Z,37.28
2022-11-27T08:56:18.433Z,29.55
2022-11-27T08:58:47.518Z,42.13
2022-11-27T09:01:18.757Z,40.13
2022-11-27T09:03:47.284Z,38.13
2022-11-27T09:06:19.818Z,36.65
2022-11-27T09:08:48.538Z,46.97
2022-11-27T09:11:20.147Z,42.33
2022-11-27T09:13:49.377Z,34.15
2022-11-27T09:16:20.352Z,40.33
2022-11-27T09:18:52.324Z,40.65
2022-11-27T09:21:24.471Z,39.50
2022-11-27T09:23:55.088Z,44.45
2022-11-27T09:26:25.420Z,42.35
2022-11-27T09:28:55.808Z,41.50
2022-11-27T09:31:25.836Z,42.42
2022-11-27T09:33:54.778Z,45.00
2022-11-27T09:36:26.945Z,37.20
2022-11-27T09:38:55.756Z,38.78
2022-11-27T09:41:46.091Z,43.90
2022-11-27T09:44:34.400Z,41.22
2022-11-27T09:47:13.216Z,37.75
2022-11-27T09:49:47.595Z,36.45
2022-11-27T09:52:25.512Z,38.58
2022-11-27T09:54:58.428Z,41.63
2022-11-27T09:57:33.648Z,44.92
2022-11-27T10:00:07.235Z,43.78
2022-11-27T10:02:36.925Z,43.92
2022-11-27T10:05:14.235Z,49.28
2022-11-27T10:08:07.019Z,48.03
2022-11-27T10:10:50.354Z,41.95
2022-11-27T10:13:34.637Z,49.53
2022-11-27T10:16:12.719Z,42.60
2022-11-27T10:18:46.578Z,37.20
2022-11-27T10:21:22.147Z,37.42
2022-11-27T10:23:59.582Z,44.67
2022-11-27T10:26:39.958Z,37.55
2022-11-27T10:29:19.254Z,39.30
2022-11-27T10:31:52.834Z,35.75
2022-11-27T10:34:34.387Z,37.58
2022-11-27T10:37:09.242Z,39.47
2022-11-27T10:39:43.391Z,45.58
2022-11-27T10:42:17.446Z,45.65
2022-11-27T10:44:51.313Z,36.85
2022-11-27T10:47:22.691Z,44.92
2022-11-27T10:49:51.090Z,39.88
2022-11-27T10:52:21.165Z,51.42
2022-11-27T10:54:57.583Z,57.45
2022-11-27T10:58:04.241Z,49.83
2022-11-27T11:00:32.912Z,40.75
2022-11-27T11:03:02.255Z,47.95
2022-11-27T11:05:50.623Z,54.92
2022-11-27T11:08:22.157Z,41.22
2022-11-27T11:10:58.839Z,42.55
2022-11-27T11:13:28.509Z,37.17
2022-11-27T11:16:00.732Z,47.88
2022-11-27T11:18:32.220Z,48.20
2022-11-27T11:21:03.670Z,40.20
2022-11-27T11:23:35.339Z,46.65
2022-11-27T11:26:16.492Z,69.10
2022-11-27T11:28:52.147Z,49.72
2022-11-27T11:31:24.097Z,51.55
2022-11-27T11:33:58.040Z,33.97
2022-11-27T11:36:26.613Z,42.55
2022-11-27T11:38:55.546Z,37.63
2022-11-27T11:41:25.136Z,31.23
2022-11-27T11:44:00.991Z,32.53
2022-11-27T11:46:32.766Z,42.60
2022-11-27T11:49:07.393Z,34.67
2022-11-27T11:52:14.537Z,40.60
2022-11-27T11:55:04.542Z,32.88
2022-11-27T11:58:10.316Z,31.02
2022-11-27T12:03:57.097Z,37.58
2022-11-27T12:06:45.923Z,30.30
2022-11-27T12:09:37.835Z,31.17
2022-11-27T12:12:20.656Z,41.90
2022-11-27T12:14:57.515Z,34.97
2022-11-27T12:17:48.729Z,37.95
2022-11-27T12:20:22.486Z,38.28
2022-11-27T12:23:43.479Z,41.40
2022-11-27T12:26:25.516Z,36.88
2022-11-27T12:29:35.032Z,33.30
2022-11-27T12:32:40.246Z,32.30
2022-11-27T12:35:31.182Z,34.05
2022-11-27T12:38:16.698Z,34.50
2022-11-27T12:41:17.993Z,35.08
2022-11-27T12:43:50.784Z,27.15
2022-11-27T12:46:27.681Z,27.17
2022-11-27T12:49:03.923Z,28.17
2022-11-27T12:51:38.619Z,26.40
2022-11-27T12:54:13.610Z,26.92
2022-11-27T12:56:48.343Z,24.95
2022-11-27T12:59:23.605Z,24.30
2022-11-27T13:02:02.451Z,23.50
2022-11-27T13:04:39.336Z,25.85
2022-11-27T13:07:13.382Z,29.90
2022-11-27T13:09:51.032Z,25.00
2022-11-27T13:12:24.614Z,27.40
2022-11-27T13:15:01.582Z,22.75
2022-11-27T13:17:38.286Z,31.23
2022-11-27T13:20:18.524Z,32.25
2022-11-27T13:22:48.468Z,27.50
2022-11-27T13:25:17.300Z,26.58
2022-11-27T13:27:51.089Z,36.97
2022-11-27T13:30:24.230Z,28.20
2022-11-27T13:32:56.403Z,28.65
2022-11-27T13:35:30.868Z,51.42
2022-11-27T13:38:11.175Z,58.90
2022-11-27T13:40:42.887Z,40.65
2022-11-27T13:43:28.695Z,22.73
2022-11-27T13:46:05.742Z,30.23
2022-11-27T13:48:37.876Z,37.50
2022-11-27T13:51:10.146Z,26.77
2022-11-27T13:53:41.002Z,28.15
2022-11-27T13:56:10.432Z,26.92
2022-11-27T13:58:41.047Z,27.25
2022-11-27T14:01:19.239Z,24.52
2022-11-27T14:03:48.106Z,29.88
2022-11-27T14:06:24.799Z,23.17
2022-11-27T14:08:58.444Z,20.13
2022-11-27T14:11:39.936Z,23.17
2022-11-27T14:14:22.271Z,22.83
2022-11-27T14:16:59.139Z,21.33
2022-11-27T14:19:34.856Z,21.38
2022-11-27T14:22:15.723Z,15.85
2022-11-27T14:24:45.873Z,20.92
2022-11-27T14:27:20.022Z,26.63
2022-11-27T14:29:48.766Z,20.70
2022-11-27T14:32:19.500Z,20.35
2022-11-27T14:34:49.058Z,17.73
2022-11-27T14:37:29.486Z,21.60
2022-11-27T14:39:58.030Z,22.70
2022-11-27T14:42:32.130Z,18.77
2022-11-27T14:45:06.608Z,21.08
2022-11-27T14:47:36.278Z,17.38
2022-11-27T14:50:05.227Z,25.48
2022-11-27T14:52:35.158Z,18.17
2022-11-27T14:55:04.544Z,19.50
2022-11-27T14:57:32.996Z,19.45
2022-11-27T15:00:18.394Z,20.98
2022-11-27T15:02:47.522Z,17.42
2022-11-27T15:05:23.584Z,21.80
2022-11-27T15:07:55.163Z,26.25
2022-11-27T15:10:34.958Z,23.00
2022-11-27T15:13:06.022Z,21.50
2022-11-27T15:15:40.530Z,30.67
2022-11-27T15:18:10.246Z,26.40
2022-11-27T15:20:42.050Z,31.73
2022-11-27T15:23:21.540Z,24.42
2022-11-27T15:25:53.450Z,23.27
2022-11-27T15:28:36.659Z,20.10
2022-11-27T15:31:25.876Z,22.98
2022-11-27T15:34:07.140Z,21.73
2022-11-27T15:36:42.044Z,46.55
2022-11-27T15:39:23.057Z,25.95
2022-11-27T15:41:57.405Z,29.92
2022-11-27T15:44:27.943Z,23.02
2022-11-27T15:46:59.463Z,20.05
2022-11-27T15:49:28.087Z,28.23
2022-11-27T15:51:58.123Z,20.38
2022-11-27T15:54:27.834Z,25.20
2022-11-27T15:56:56.387Z,23.20
2022-11-27T15:59:27.220Z,24.38
2022-11-27T16:01:55.998Z,30.17
2022-11-27T16:04:24.564Z,20.25
2022-11-27T16:06:52.850Z,29.77
2022-11-27T16:09:21.499Z,23.42
2022-11-27T16:11:51.375Z,25.25
2022-11-27T16:14:19.889Z,24.30
2022-11-27T16:16:48.482Z,22.33
2022-11-27T16:19:17.285Z,20.83
2022-11-27T16:21:45.847Z,19.48
2022-11-27T16:24:15.511Z,23.10
2022-11-27T16:26:44.074Z,26.25
2022-11-27T16:29:13.662Z,22.90
2022-11-27T16:31:43.208Z,26.42
2022-11-27T16:34:11.838Z,23.40
2022-11-27T16:36:43.665Z,23.17
2022-11-27T16:39:12.453Z,19.92
2022-11-27T16:41:41.287Z,22.23
2022-11-27T16:44:13.890Z,29.98
2022-11-27T16:46:44.249Z,21.40
2022-11-27T16:49:13.203Z,23.02
2022-11-27T16:51:43.793Z,21.83
2022-11-27T16:54:14.453Z,25.55
2022-11-27T16:56:44.383Z,21.48
2022-11-27T16:59:15.899Z,20.80
2022-11-27T17:01:45.559Z,19.55
2022-11-27T17:04:19.460Z,26.10
2022-11-27T17:06:49.057Z,24.27
2022-11-27T17:09:18.105Z,23.58
2022-11-27T17:11:49.416Z,25.15
2022-11-27T17:14:20.718Z,21.30
2022-11-27T17:16:50.709Z,22.80
2022-11-27T17:19:19.686Z,20.40
2022-11-27T17:21:48.323Z,28.13
2022-11-27T17:24:18.301Z,18.90
2022-11-27T17:26:48.190Z,24.85
2022-11-27T17:29:20.870Z,16.25
2022-11-27T17:31:51.480Z,22.58
2022-11-27T17:34:20.621Z,20.85
2022-11-27T17:36:53.489Z,25.17
2022-11-27T17:39:22.601Z,22.35
2022-11-27T17:41:51.214Z,21.90
2022-11-27T17:44:21.064Z,21.95
2022-11-27T17:46:50.613Z,27.92
2022-11-27T17:49:21.894Z,26.38
2022-11-27T17:51:51.500Z,30.45
2022-11-27T17:54:20.558Z,32.13
2022-11-27T17:56:51.342Z,28.55
2022-11-27T17:59:21.910Z,31.50
2022-11-27T18:01:52.986Z,31.27
2022-11-27T18:04:21.915Z,34.50
2022-11-27T18:06:50.475Z,35.97
2022-11-27T18:09:18.880Z,29.50
2022-11-27T18:11:47.394Z,25.20
2022-11-27T18:14:17.106Z,23.70
2022-11-27T18:16:46.830Z,24.83
2022-11-27T18:19:15.365Z,25.88
2022-11-27T18:21:43.943Z,22.20
2022-11-27T18:24:23.003Z,31.63
2022-11-27T18:27:07.833Z,27.77
2022-11-27T18:29:37.781Z,32.22
2022-11-27T18:32:07.709Z,74.85
2022-11-27T18:34:36.523Z,69.13
2022-11-27T18:37:05.305Z,78.38
2022-11-27T18:39:33.824Z,68.47
2022-11-27T18:42:03.361Z,48.22
2022-11-27T18:44:32.318Z,36.13
2022-11-27T18:47:01.038Z,50.28
2022-11-27T18:49:31.142Z,33.58
2022-11-27T18:51:59.980Z,30.23
2022-11-27T18:54:29.352Z,29.23
2022-11-27T18:56:57.924Z,28.33
2022-11-27T18:59:26.767Z,34.50
2022-11-27T19:01:55.479Z,26.20
2022-11-27T19:04:24.138Z,24.88
2022-11-27T19:06:53.756Z,22.75
2022-11-27T19:09:23.159Z,20.85
2022-11-27T19:11:51.363Z,26.65
2022-11-27T19:14:21.566Z,21.73
2022-11-27T19:16:50.722Z,24.38
2022-11-27T19:22:11.497Z,27.17
2022-11-27T19:24:41.533Z,25.75
2022-11-27T19:27:10.046Z,31.05
2022-11-27T19:29:38.676Z,28.15
2022-11-27T19:32:07.470Z,28.63
2022-11-27T19:34:35.666Z,25.65
2022-11-27T19:37:03.882Z,24.42
2022-11-27T19:39:33.443Z,26.63
2022-11-27T19:42:02.198Z,23.00
2022-11-27T19:44:30.815Z,23.83
2022-11-27T19:46:59.355Z,27.15
2022-11-27T19:49:28.227Z,33.35
2022-11-27T19:51:56.446Z,30.25
2022-11-27T19:54:25.181Z,29.58
2022-11-27T19:56:54.775Z,35.80
2022-11-27T19:59:26.163Z,32.50
2022-11-27T20:01:56.419Z,28.60
2022-11-27T20:04:29.603Z,35.53
2022-11-27T20:06:58.174Z,30.20
2022-11-27T20:09:26.915Z,25.20
2022-11-27T20:11:56.584Z,33.75
2022-11-27T20:14:25.864Z,27.40
2022-11-27T20:16:55.177Z,32.25
2022-11-27T20:19:23.850Z,34.60
2022-11-27T20:21:52.539Z,31.00
2022-11-27T20:24:21.234Z,25.23
2022-11-27T20:26:50.529Z,28.67
2022-11-27T20:29:20.152Z,31.50
2022-11-27T20:31:49.292Z,35.13
2022-11-27T20:34:21.080Z,27.17
2022-11-27T20:36:50.340Z,25.02
2022-11-27T20:39:21.552Z,30.60
2022-11-27T20:41:53.416Z,22.55
2022-11-27T20:44:23.799Z,27.85
2022-11-27T20:46:52.550Z,28.80
2022-11-27T20:49:21.698Z,31.75
2022-11-27T20:51:50.653Z,26.80
2022-11-27T20:54:22.903Z,29.52
2022-11-27T20:56:51.492Z,35.78
2022-11-27T20:59:22.020Z,31.42
2022-11-27T21:01:53.070Z,28.05
2022-11-27T21:04:26.867Z,30.50
2022-11-27T21:06:57.607Z,31.33
2022-11-27T21:09:26.825Z,30.95
2022-11-27T21:11:55.367Z,29.98
2022-11-27T21:14:24.391Z,33.83
2022-11-27T21:16:54.396Z,33.47
2022-11-27T21:19:25.543Z,24.77
2022-11-27T21:21:57.092Z,28.83
2022-11-27T21:24:28.397Z,25.45
2022-11-27T21:26:57.454Z,32.53
2022-11-27T21:29:28.402Z,28.55
2022-11-27T21:31:58.567Z,28.17
2022-11-27T21:34:27.318Z,27.05
2022-11-27T21:36:56.452Z,32.17
2022-11-27T21:39:25.640Z,35.78
2022-11-27T21:41:56.257Z,28.92
2022-11-27T21:44:25.796Z,26.00
2022-11-27T21:46:54.811Z,27.45
2022-11-27T21:49:25.211Z,30.13
2022-11-27T21:51:55.698Z,29.77
2022-11-27T21:54:31.651Z,27.20
2022-11-27T21:57:00.230Z,28.35
2022-11-27T21:59:28.961Z,29.52
2022-11-27T22:01:58.679Z,32.90
2022-11-27T22:04:28.280Z,32.83
2022-11-27T22:06:56.811Z,38.05
2022-11-27T22:09:25.326Z,32.30
2022-11-27T22:11:54.203Z,22.90
2022-11-27T22:14:22.640Z,23.05
2022-11-27T22:16:51.360Z,33.60
2022-11-27T22:19:19.949Z,33.60
2022-11-27T22:21:49.571Z,36.58
2022-11-27T22:24:19.693Z,44.53
2022-11-27T22:26:52.491Z,27.70
2022-11-27T22:29:21.427Z,32.17
2022-11-27T22:31:49.662Z,28.55
2022-11-27T22:34:18.469Z,24.33
2022-11-27T22:36:48.896Z,25.90
2022-11-27T22:39:17.471Z,21.75
2022-11-27T22:41:47.022Z,25.55
2022-11-27T22:44:18.627Z,30.23
2022-11-27T22:46:48.481Z,26.73
2022-11-27T22:49:19.093Z,26.33
2022-11-27T22:51:49.230Z,22.70
2022-11-27T22:54:17.981Z,23.88
2022-11-27T22:56:47.633Z,20.75
2022-11-27T22:59:34.015Z,20.92
2022-11-27T23:02:06.180Z,27.63
2022-11-27T23:04:34.983Z,23.80
2022-11-27T23:07:06.693Z,19.83
2022-11-27T23:09:35.790Z,27.20
2022-11-27T23:12:04.449Z,31.77
2022-11-27T23:14:33.126Z,26.15
2022-11-27T23:17:01.897Z,29.10
2022-11-27T23:19:30.295Z,25.05
2022-11-27T23:21:58.938Z,28.13
2022-11-27T23:24:28.590Z,31.95
2022-11-27T23:26:57.096Z,26.23
2022-11-27T23:29:26.219Z,30.50
2022-11-27T23:31:54.730Z,27.95
2022-11-27T23:34:23.306Z,25.25
2022-11-27T23:36:52.059Z,30.58
2022-11-27T23:39:20.620Z,26.27
2022-11-27T23:41:50.290Z,24.20
2022-11-27T23:44:18.902Z,22.52
2022-11-27T23:46:48.016Z,27.40
2022-11-27T23:49:16.575Z,22.42
2022-11-27T23:51:45.167Z,20.20
2022-11-27T23:54:13.851Z,20.23
2022-11-27T23:56:43.026Z,21.70
2022-11-27T23:59:12.957Z,21.40
